createdAt,value
2023-03-11T00:00:48.654Z,1.70
2023-03-11T00:03:18.308Z,1.70
2023-03-11T00:05:47.552Z,1.77
2023-03-11T00:08:17.396Z,1.50
2023-03-11T00:10:46.568Z,1.70
2023-03-11T00:13:16.474Z,1.37
2023-03-11T00:15:47.060Z,1.70
2023-03-11T00:18:15.022Z,1.40
2023-03-11T00:20:44.790Z,1.20
2023-03-11T00:23:14.171Z,1.30
2023-03-11T00:25:42.146Z,1.20
2023-03-11T00:28:10.556Z,1.17
2023-03-11T00:30:39.042Z,1.20
2023-03-11T00:33:08.675Z,1.67
2023-03-11T00:35:37.435Z,1.10
2023-03-11T00:38:07.419Z,1.10
2023-03-11T00:40:36.532Z,1.07
2023-03-11T00:43:04.887Z,0.80
2023-03-11T00:45:33.785Z,0.90
2023-03-11T00:48:01.819Z,0.63
2023-03-11T00:50:33.612Z,1.10
2023-03-11T00:53:01.950Z,0.80
2023-03-11T00:55:31.296Z,0.73
2023-03-11T00:58:02.698Z,0.80
2023-03-11T01:00:37.512Z,1.10
2023-03-11T01:03:05.610Z,0.90
2023-03-11T01:05:35.687Z,1.13
2023-03-11T01:08:04.520Z,1.00
2023-03-11T01:10:34.441Z,0.70
2023-03-11T01:13:02.449Z,1.10
2023-03-11T01:15:33.240Z,1.20
2023-03-11T01:18:01.330Z,0.80
2023-03-11T01:20:29.428Z,0.70
2023-03-11T01:22:58.965Z,0.90
2023-03-11T01:25:27.088Z,0.90
2023-03-11T01:27:55.158Z,0.80
2023-03-11T01:30:25.303Z,1.10
2023-03-11T01:32:54.103Z,1.10
2023-03-11T01:35:23.657Z,1.10
2023-03-11T01:37:52.483Z,1.10
2023-03-11T01:40:27.195Z,0.80
2023-03-11T01:42:55.323Z,1.00
2023-03-11T01:46:04.021Z,0.70
2023-03-11T01:48:32.858Z,0.80
2023-03-11T01:51:01.990Z,0.90
2023-03-11T01:53:30.236Z,0.80
2023-03-11T01:55:59.531Z,1.00
2023-03-11T01:58:32.058Z,1.00
2023-03-11T02:01:01.100Z,1.00
2023-03-11T02:03:32.148Z,0.90
2023-03-11T02:06:02.902Z,1.20
2023-03-11T02:08:34.153Z,1.00
2023-03-11T02:11:06.701Z,1.10
2023-03-11T02:13:36.284Z,0.90
2023-03-11T02:16:05.448Z,1.00
2023-03-11T02:18:33.932Z,1.10
2023-03-11T02:21:08.769Z,1.50
2023-03-11T02:23:52.270Z,0.90
2023-03-11T02:26:26.123Z,1.30
2023-03-11T02:28:57.387Z,0.90
2023-03-11T02:31:25.690Z,0.87
2023-03-11T02:33:55.636Z,1.10
2023-03-11T02:36:35.257Z,1.00
2023-03-11T02:39:05.804Z,0.90
2023-03-11T02:41:36.835Z,1.17
2023-03-11T02:44:08.501Z,1.17
2023-03-11T02:46:37.371Z,1.00
2023-03-11T02:49:06.094Z,1.07
2023-03-11T02:51:34.772Z,1.07
2023-03-11T02:54:05.144Z,1.00
2023-03-11T02:56:34.261Z,1.23
2023-03-11T02:59:02.218Z,0.80
2023-03-11T03:01:32.733Z,1.17
2023-03-11T03:04:01.247Z,1.17
2023-03-11T03:06:31.845Z,1.37
2023-03-11T03:08:59.772Z,1.07
2023-03-11T03:11:27.825Z,1.03
2023-03-11T03:13:55.691Z,0.93
2023-03-11T03:16:24.121Z,1.00
2023-03-11T03:18:53.367Z,1.23
2023-03-11T03:21:21.338Z,1.10
2023-03-11T03:23:49.663Z,1.20
2023-03-11T03:26:17.498Z,1.23
2023-03-11T03:28:49.051Z,1.20
2023-03-11T03:31:16.988Z,1.27
2023-03-11T03:33:45.553Z,1.87
2023-03-11T03:36:16.262Z,1.50
2023-03-11T03:38:54.949Z,1.07
2023-03-11T03:41:23.339Z,2.13
2023-03-11T03:43:51.222Z,1.17
2023-03-11T03:46:19.173Z,1.47
2023-03-11T03:48:49.695Z,1.47
2023-03-11T03:51:19.097Z,1.93
2023-03-11T03:54:01.142Z,1.13
2023-03-11T03:56:29.232Z,1.57
2023-03-11T03:58:57.571Z,1.50
2023-03-11T04:01:29.240Z,1.27
2023-03-11T04:03:58.867Z,1.70
2023-03-11T04:06:29.030Z,1.50
2023-03-11T04:09:04.042Z,1.30
2023-03-11T04:11:34.806Z,1.07
2023-03-11T04:14:04.139Z,1.40
2023-03-11T04:16:33.797Z,1.33
2023-03-11T04:19:06.747Z,1.33
2023-03-11T04:21:36.809Z,1.67
2023-03-11T04:24:06.634Z,1.57
2023-03-11T04:26:36.985Z,1.20
2023-03-11T04:29:06.690Z,1.50
2023-03-11T04:31:40.172Z,1.50
2023-03-11T04:34:08.320Z,1.30
2023-03-11T04:36:39.447Z,1.03
2023-03-11T04:39:08.664Z,1.43
2023-03-11T04:41:42.014Z,1.40
2023-03-11T04:44:12.287Z,1.40
2023-03-11T04:46:40.361Z,1.33
2023-03-11T04:49:09.938Z,1.50
2023-03-11T04:51:39.667Z,1.20
2023-03-11T04:54:08.467Z,1.67
2023-03-11T04:56:36.352Z,2.00
2023-03-11T04:59:05.313Z,1.50
2023-03-11T05:01:35.251Z,2.03
2023-03-11T05:04:05.443Z,1.50
2023-03-11T05:06:33.400Z,1.90
2023-03-11T05:09:04.841Z,1.73
2023-03-11T05:11:35.794Z,1.67
2023-03-11T05:14:03.868Z,1.60
2023-03-11T05:16:31.781Z,1.80
2023-03-11T05:18:59.769Z,1.80
2023-03-11T05:21:28.135Z,1.50
2023-03-11T05:23:56.011Z,1.93
2023-03-11T05:26:25.459Z,1.60
2023-03-11T05:28:54.412Z,1.50
2023-03-11T05:31:22.268Z,1.57
2023-03-11T05:33:50.191Z,1.77
2023-03-11T05:36:17.993Z,2.00
2023-03-11T05:38:46.628Z,1.67
2023-03-11T05:41:16.786Z,1.90
2023-03-11T05:43:46.680Z,2.03
2023-03-11T05:46:15.677Z,1.80
2023-03-11T05:48:43.798Z,1.60
2023-03-11T05:51:14.037Z,2.07
2023-03-11T05:53:48.063Z,2.00
2023-03-11T05:56:21.843Z,1.60
2023-03-11T05:58:51.829Z,1.60
2023-03-11T06:01:20.985Z,1.63
2023-03-11T06:03:49.467Z,1.83
2023-03-11T06:06:17.830Z,1.80
2023-03-11T06:08:50.298Z,2.00
2023-03-11T06:11:20.408Z,2.37
2023-03-11T06:13:48.612Z,2.00
2023-03-11T06:16:17.976Z,2.07
2023-03-11T06:18:45.912Z,1.90
2023-03-11T06:21:17.244Z,2.07
2023-03-11T06:23:45.175Z,2.40
2023-03-11T06:26:16.068Z,2.23
2023-03-11T06:28:45.957Z,1.90
2023-03-11T06:31:16.150Z,2.20
2023-03-11T06:33:45.442Z,2.57
2023-03-11T06:36:14.831Z,2.47
2023-03-11T06:38:43.161Z,1.93
2023-03-11T06:41:11.706Z,2.27
2023-03-11T06:43:40.390Z,1.90
2023-03-11T06:46:12.943Z,2.30
2023-03-11T06:48:41.732Z,2.53
2023-03-11T06:51:12.057Z,2.00
2023-03-11T06:53:40.536Z,2.20
2023-03-11T06:56:10.763Z,1.90
2023-03-11T06:58:51.678Z,2.10
2023-03-11T07:01:21.635Z,1.97
2023-03-11T07:03:51.240Z,2.20
2023-03-11T07:06:24.317Z,2.80
2023-03-11T07:08:54.983Z,2.20
2023-03-11T07:11:24.210Z,2.87
2023-03-11T07:13:55.240Z,1.93
2023-03-11T07:16:25.154Z,1.90
2023-03-11T07:18:59.095Z,3.37
2023-03-11T07:21:29.324Z,2.40
2023-03-11T07:23:58.680Z,2.53
2023-03-11T07:26:27.522Z,1.87
2023-03-11T07:28:56.245Z,1.90
2023-03-11T07:31:25.983Z,1.53
2023-03-11T07:33:54.414Z,1.63
2023-03-11T07:36:23.893Z,2.20
2023-03-11T07:38:59.593Z,2.00
2023-03-11T07:41:28.192Z,1.30
2023-03-11T07:43:57.070Z,1.87
2023-03-11T07:46:26.092Z,1.97
2023-03-11T07:48:54.272Z,1.63
2023-03-11T07:51:23.352Z,1.70
2023-03-11T07:53:53.418Z,2.03
2023-03-11T07:56:25.355Z,1.77
2023-03-11T07:58:53.483Z,1.93
2023-03-11T08:01:22.990Z,1.73
2023-03-11T08:03:56.911Z,1.60
2023-03-11T08:06:26.720Z,2.40
2023-03-11T08:08:54.774Z,2.30
2023-03-11T08:11:24.259Z,1.97
2023-03-11T08:13:53.631Z,1.50
2023-03-11T08:16:23.537Z,2.20
2023-03-11T08:18:53.372Z,1.90
2023-03-11T08:21:23.369Z,2.30
2023-03-11T08:23:51.216Z,1.80
2023-03-11T08:26:20.415Z,1.90
2023-03-11T08:28:50.366Z,1.83
2023-03-11T08:31:19.630Z,1.77
2023-03-11T08:33:50.303Z,1.57
2023-03-11T08:36:18.627Z,1.90
2023-03-11T08:38:46.598Z,1.37
2023-03-11T08:41:14.591Z,2.00
2023-03-11T08:43:42.942Z,2.03
2023-03-11T08:46:16.312Z,1.97
2023-03-11T08:48:44.450Z,2.30
2023-03-11T08:51:13.262Z,1.30
2023-03-11T08:53:41.122Z,1.40
2023-03-11T08:56:09.518Z,1.77
2023-03-11T08:58:37.431Z,1.50
2023-03-11T09:01:09.179Z,1.57
2023-03-11T09:03:38.475Z,1.50
2023-03-11T09:06:08.877Z,1.30
2023-03-11T09:08:36.821Z,1.60
2023-03-11T09:11:05.562Z,1.50
2023-03-11T09:13:33.463Z,1.50
2023-03-11T09:16:01.427Z,1.53
2023-03-11T09:18:29.434Z,1.27
2023-03-11T09:20:59.301Z,1.00
2023-03-11T09:23:27.123Z,1.20
2023-03-11T09:25:55.059Z,1.50
2023-03-11T09:28:25.933Z,1.57
2023-03-11T09:30:53.766Z,1.40
2023-03-11T09:33:24.644Z,1.13
2023-03-11T09:35:52.696Z,1.67
2023-03-11T09:38:22.066Z,1.30
2023-03-11T09:40:57.224Z,1.40
2023-03-11T09:43:44.639Z,1.23
2023-03-11T09:46:27.924Z,1.40
2023-03-11T09:48:59.398Z,1.20
2023-03-11T09:51:29.015Z,2.03
2023-03-11T09:54:02.251Z,1.60
2023-03-11T09:56:33.562Z,1.40
2023-03-11T09:59:04.367Z,1.30
2023-03-11T10:01:34.966Z,1.40
2023-03-11T10:04:05.184Z,1.00
2023-03-11T10:06:33.414Z,1.60
2023-03-11T10:09:08.518Z,1.67
2023-03-11T10:11:49.545Z,1.30
2023-03-11T10:14:29.438Z,1.57
2023-03-11T10:17:02.532Z,1.40
2023-03-11T10:19:39.571Z,1.40
2023-03-11T10:22:16.613Z,1.50
2023-03-11T10:25:10.475Z,1.70
2023-03-11T10:27:42.352Z,1.53
2023-03-11T10:30:20.067Z,1.67
2023-03-11T10:32:50.263Z,1.30
2023-03-11T10:35:20.128Z,1.20
2023-03-11T10:37:53.722Z,1.40
2023-03-11T10:40:31.138Z,2.00
2023-03-11T10:43:03.068Z,1.57
2023-03-11T10:45:35.900Z,1.60
2023-03-11T10:48:03.894Z,1.37
2023-03-11T10:50:37.892Z,1.40
2023-03-11T10:53:08.934Z,2.43
2023-03-11T10:55:46.843Z,1.30
2023-03-11T10:58:16.583Z,1.50
2023-03-11T11:00:44.518Z,1.63
2023-03-11T11:03:22.271Z,1.10
2023-03-11T11:06:05.074Z,1.20
2023-03-11T11:08:34.897Z,1.33
2023-03-11T11:11:05.608Z,1.63
2023-03-11T11:13:34.720Z,1.93
2023-03-11T11:16:05.028Z,1.20
2023-03-11T11:18:35.260Z,1.10
2023-03-11T11:21:06.687Z,1.43
2023-03-11T11:23:41.070Z,1.10
2023-03-11T11:26:19.653Z,1.10
2023-03-11T11:28:47.510Z,1.20
2023-03-11T11:31:24.803Z,1.03
2023-03-11T11:33:54.549Z,1.10
2023-03-11T11:36:25.174Z,1.50
2023-03-11T11:38:53.839Z,1.10
2023-03-11T11:41:24.974Z,1.23
2023-03-11T11:43:54.926Z,1.57
2023-03-11T11:46:27.191Z,2.00
2023-03-11T11:49:09.504Z,1.60
2023-03-11T11:51:41.324Z,1.47
2023-03-11T11:54:17.455Z,1.93
2023-03-11T11:56:47.032Z,1.77
2023-03-11T11:59:17.928Z,1.87
2023-03-11T12:01:54.447Z,2.07
2023-03-11T12:04:31.629Z,1.87
2023-03-11T12:07:07.192Z,1.40
2023-03-11T12:09:38.688Z,1.20
2023-03-11T12:12:17.114Z,1.73
2023-03-11T12:14:48.920Z,1.60
2023-03-11T12:17:18.409Z,1.27
2023-03-11T12:19:50.164Z,1.30
2023-03-11T12:23:01.262Z,1.67
2023-03-11T12:25:36.577Z,1.20
2023-03-11T12:28:16.311Z,1.13
2023-03-11T12:30:45.985Z,1.30
2023-03-11T12:33:18.026Z,1.30
2023-03-11T12:35:51.898Z,1.30
2023-03-11T12:38:22.558Z,1.40
2023-03-11T12:41:08.415Z,1.10
2023-03-11T12:44:24.245Z,1.40
2023-03-11T12:47:31.663Z,1.43
2023-03-11T12:50:33.773Z,1.50
2023-03-11T12:53:01.720Z,1.50
2023-03-11T12:55:35.159Z,1.33
2023-03-11T12:58:18.649Z,1.17
2023-03-11T13:00:59.777Z,1.27
2023-03-11T13:03:40.849Z,1.40
2023-03-11T13:06:38.187Z,1.47
2023-03-11T13:09:07.644Z,1.30
2023-03-11T13:11:43.908Z,1.70
2023-03-11T13:14:29.889Z,1.50
2023-03-11T13:17:23.836Z,1.53
2023-03-11T13:19:54.304Z,1.50
2023-03-11T13:22:44.373Z,1.50
2023-03-11T13:25:42.795Z,1.87
2023-03-11T13:28:44.091Z,1.33
2023-03-11T13:31:21.034Z,1.87
2023-03-11T13:33:56.019Z,1.40
2023-03-11T13:36:35.913Z,1.40
2023-03-11T13:39:18.484Z,2.30
2023-03-11T13:41:47.712Z,1.40
2023-03-11T13:44:26.122Z,1.43
2023-03-11T13:46:58.447Z,1.50
2023-03-11T13:49:33.671Z,1.90
2023-03-11T13:52:03.043Z,1.57
2023-03-11T13:54:36.070Z,1.50
2023-03-11T13:57:04.631Z,1.50
2023-03-11T13:59:35.869Z,1.43
2023-03-11T14:02:14.216Z,1.20
2023-03-11T14:04:49.042Z,1.40
2023-03-11T14:07:22.765Z,1.73
2023-03-11T14:09:50.853Z,1.60
2023-03-11T14:12:19.264Z,1.50
2023-03-11T14:14:50.255Z,1.53
2023-03-11T14:17:19.859Z,1.70
2023-03-11T14:20:09.655Z,1.30
2023-03-11T14:22:38.203Z,2.67
2023-03-11T14:25:09.467Z,1.40
2023-03-11T14:27:39.278Z,1.60
2023-03-11T14:30:09.329Z,1.70
2023-03-11T14:32:37.533Z,1.43
2023-03-11T14:35:20.171Z,1.63
2023-03-11T14:37:48.797Z,1.40
2023-03-11T14:40:24.849Z,1.60
2023-03-11T14:42:54.132Z,1.50
2023-03-11T14:45:23.707Z,1.63
2023-03-11T14:47:55.473Z,1.60
2023-03-11T14:50:26.308Z,1.60
2023-03-11T14:52:56.871Z,1.40
2023-03-11T14:55:28.991Z,1.60
2023-03-11T14:57:58.318Z,1.20
2023-03-11T15:00:28.864Z,1.40
2023-03-11T15:03:14.687Z,1.70
2023-03-11T15:05:47.524Z,1.60
2023-03-11T15:08:18.765Z,1.67
2023-03-11T15:11:17.654Z,1.30
2023-03-11T15:13:47.382Z,1.40
2023-03-11T15:16:30.482Z,1.73
2023-03-11T15:19:00.761Z,1.57
2023-03-11T15:21:30.953Z,2.20
2023-03-11T15:24:02.329Z,1.70
2023-03-11T15:26:31.576Z,1.30
2023-03-11T15:29:00.926Z,2.37
2023-03-11T15:31:34.985Z,1.50
2023-03-11T15:34:11.722Z,1.73
2023-03-11T15:36:46.064Z,1.37
2023-03-11T15:39:17.429Z,1.57
2023-03-11T15:41:49.197Z,1.70
2023-03-11T15:44:25.803Z,1.20
2023-03-11T15:46:54.125Z,1.50
2023-03-11T15:49:22.154Z,1.40
2023-03-11T15:51:51.342Z,1.23
2023-03-11T15:54:19.191Z,1.40
2023-03-11T15:56:47.295Z,1.27
2023-03-11T15:59:17.131Z,2.00
2023-03-11T16:01:46.295Z,2.23
2023-03-11T16:04:19.902Z,2.20
2023-03-11T16:06:56.668Z,2.10
2023-03-11T16:09:34.298Z,1.37
2023-03-11T16:12:02.810Z,6.00
2023-03-11T16:14:30.581Z,2.07
2023-03-11T16:16:58.447Z,1.80
2023-03-11T16:19:26.312Z,1.60
2023-03-11T16:21:54.202Z,1.50
2023-03-11T16:24:24.025Z,1.43
2023-03-11T16:26:53.791Z,1.53
2023-03-11T16:29:23.192Z,1.47
2023-03-11T16:31:51.066Z,1.30
2023-03-11T16:34:19.072Z,1.87
2023-03-11T16:36:50.112Z,1.40
2023-03-11T16:39:17.946Z,1.27
2023-03-11T16:41:46.038Z,1.67
2023-03-11T16:44:15.236Z,1.67
2023-03-11T16:46:43.166Z,1.83
2023-03-11T16:49:11.008Z,1.90
2023-03-11T16:51:38.930Z,1.67
2023-03-11T16:54:07.247Z,2.00
2023-03-11T16:56:36.167Z,1.70
2023-03-11T16:59:04.316Z,1.60
2023-03-11T17:01:39.143Z,1.50
2023-03-11T17:04:07.590Z,1.67
2023-03-11T17:06:35.578Z,1.80
2023-03-11T17:09:03.496Z,1.40
2023-03-11T17:11:33.145Z,1.40
2023-03-11T17:14:15.481Z,1.80
2023-03-11T17:16:45.749Z,2.23
2023-03-11T17:19:13.589Z,1.73
2023-03-11T17:21:41.467Z,2.13
2023-03-11T17:24:10.315Z,1.77
2023-03-11T17:26:38.866Z,1.60
2023-03-11T17:29:06.951Z,1.43
2023-03-11T17:31:34.925Z,1.30
2023-03-11T17:34:04.230Z,1.60
2023-03-11T17:36:32.146Z,1.77
2023-03-11T17:39:00.072Z,1.50
2023-03-11T17:41:27.914Z,1.47
2023-03-11T17:43:55.759Z,1.60
2023-03-11T17:46:23.701Z,1.87
2023-03-11T17:48:52.169Z,1.70
2023-03-11T17:51:23.561Z,1.90
2023-03-11T17:53:51.675Z,2.10
2023-03-11T17:56:21.310Z,1.73
2023-03-11T17:58:49.724Z,1.53
2023-03-11T18:01:19.095Z,1.80
2023-03-11T18:03:47.158Z,1.70
2023-03-11T18:06:15.702Z,1.27
2023-03-11T18:08:44.887Z,1.53
2023-03-11T18:11:15.427Z,2.20
2023-03-11T18:13:44.219Z,1.90
2023-03-11T18:16:14.460Z,2.93
2023-03-11T18:18:43.701Z,2.50
2023-03-11T18:21:13.601Z,2.23
2023-03-11T18:23:41.752Z,2.30
2023-03-11T18:26:13.257Z,3.40
2023-03-11T18:28:41.743Z,2.70
2023-03-11T18:31:11.443Z,3.40
2023-03-11T18:33:39.325Z,2.53
2023-03-11T18:36:14.546Z,3.10
2023-03-11T18:38:42.556Z,2.60
2023-03-11T18:41:12.069Z,3.03
2023-03-11T18:43:40.460Z,2.83
2023-03-11T18:46:09.297Z,3.67
2023-03-11T18:48:38.169Z,3.10
2023-03-11T18:51:07.058Z,3.60
2023-03-11T18:53:35.183Z,3.63
2023-03-11T18:56:04.531Z,5.10
2023-03-11T18:58:36.957Z,5.40
2023-03-11T19:01:06.038Z,4.20
2023-03-11T19:03:33.937Z,4.47
2023-03-11T19:06:02.128Z,4.60
2023-03-11T19:08:30.008Z,3.50
2023-03-11T19:10:57.904Z,3.93
2023-03-11T19:13:37.121Z,2.97
2023-03-11T19:16:14.146Z,3.23
2023-03-11T19:18:41.983Z,4.33
2023-03-11T19:21:11.318Z,3.27
2023-03-11T19:23:39.239Z,3.43
2023-03-11T19:26:07.428Z,3.47
2023-03-11T19:28:35.299Z,3.30
2023-03-11T19:31:05.294Z,3.07
2023-03-11T19:33:34.713Z,3.40
2023-03-11T19:36:04.566Z,3.13
2023-03-11T19:38:32.686Z,3.20
2023-03-11T19:41:05.620Z,2.97
2023-03-11T19:43:33.665Z,2.60
2023-03-11T19:46:01.806Z,2.00
2023-03-11T19:48:29.710Z,2.20
2023-03-11T19:50:59.458Z,2.30
2023-03-11T19:53:27.805Z,3.00
2023-03-11T19:55:57.103Z,2.60
2023-03-11T19:58:29.469Z,2.60
2023-03-11T20:00:59.301Z,3.70
2023-03-11T20:03:27.844Z,3.20
2023-03-11T20:05:59.670Z,3.50
2023-03-11T20:08:27.553Z,2.80
2023-03-11T20:10:55.501Z,3.33
2023-03-11T20:13:23.523Z,3.27
2023-03-11T20:15:51.625Z,3.00
2023-03-11T20:18:19.624Z,2.67
2023-03-11T20:20:47.538Z,3.20
2023-03-11T20:23:16.734Z,3.50
2023-03-11T20:25:44.626Z,3.80
2023-03-11T20:28:12.509Z,4.33
2023-03-11T20:30:41.158Z,5.20
2023-03-11T20:33:09.322Z,4.17
2023-03-11T20:35:37.238Z,3.30
2023-03-11T20:38:05.172Z,3.67
2023-03-11T20:40:34.436Z,3.97
2023-03-11T20:43:02.770Z,3.40
2023-03-11T20:45:30.633Z,3.97
2023-03-11T20:47:58.784Z,3.47
2023-03-11T20:50:26.698Z,3.37
2023-03-11T20:52:54.675Z,3.63
2023-03-11T20:55:22.888Z,3.77
2023-03-11T20:57:54.231Z,3.57
2023-03-11T21:00:22.663Z,3.47
2023-03-11T21:02:50.715Z,3.70
2023-03-11T21:05:18.838Z,4.30
2023-03-11T21:07:48.950Z,4.37
2023-03-11T21:10:17.065Z,4.47
2023-03-11T21:12:45.053Z,4.43
2023-03-11T21:15:14.427Z,3.70
2023-03-11T21:17:42.256Z,4.50
2023-03-11T21:20:12.000Z,4.00
2023-03-11T21:22:40.048Z,2.97
2023-03-11T21:25:08.862Z,3.50
2023-03-11T21:27:36.677Z,3.40
2023-03-11T21:30:05.377Z,3.50
2023-03-11T21:32:34.721Z,3.37
2023-03-11T21:35:03.974Z,3.40
2023-03-11T21:37:31.873Z,3.00
2023-03-11T21:39:59.896Z,3.63
2023-03-11T21:42:30.003Z,3.87
2023-03-11T21:44:58.246Z,3.97
2023-03-11T21:47:26.364Z,4.77
2023-03-11T21:49:55.922Z,3.10
2023-03-11T21:52:24.601Z,3.83
2023-03-11T21:54:52.910Z,3.73
2023-03-11T21:57:21.081Z,4.03
2023-03-11T21:59:49.810Z,3.70
2023-03-11T22:02:20.783Z,3.37
2023-03-11T22:04:48.967Z,3.43
2023-03-11T22:07:18.866Z,3.00
2023-03-11T22:09:46.809Z,3.33
2023-03-11T22:12:15.026Z,3.60
2023-03-11T22:14:43.050Z,3.30
2023-03-11T22:17:11.122Z,3.40
2023-03-11T22:19:39.121Z,3.80
2023-03-11T22:22:07.194Z,4.10
2023-03-11T22:24:36.353Z,3.50
2023-03-11T22:27:04.299Z,3.67
2023-03-11T22:29:32.104Z,3.17
2023-03-11T22:32:00.113Z,3.07
2023-03-11T22:34:28.062Z,3.73
2023-03-11T22:36:57.242Z,3.50
2023-03-11T22:39:26.426Z,3.50
2023-03-11T22:41:55.643Z,3.27
2023-03-11T22:44:23.607Z,2.63
2023-03-11T22:46:51.513Z,2.63
2023-03-11T22:49:19.338Z,2.37
2023-03-11T22:51:47.263Z,2.40
2023-03-11T22:54:15.338Z,2.13
2023-03-11T22:56:43.206Z,2.30
2023-03-11T22:59:12.414Z,2.17
2023-03-11T23:01:40.244Z,2.10
2023-03-11T23:04:08.114Z,1.93
2023-03-11T23:06:35.923Z,2.17
2023-03-11T23:09:04.673Z,1.90
2023-03-11T23:11:32.674Z,2.10
2023-03-11T23:14:00.723Z,2.17
2023-03-11T23:16:31.311Z,1.80
2023-03-11T23:19:01.094Z,2.33
2023-03-11T23:21:30.577Z,2.27
2023-03-11T23:23:59.864Z,1.90
2023-03-11T23:26:28.554Z,2.10
2023-03-11T23:28:56.957Z,1.87
2023-03-11T23:31:26.165Z,2.20
2023-03-11T23:33:55.542Z,2.13
2023-03-11T23:36:26.805Z,2.40
2023-03-11T23:38:54.637Z,2.07
2023-03-11T23:41:23.683Z,2.60
2023-03-11T23:43:52.055Z,2.40
2023-03-11T23:46:20.006Z,2.00
2023-03-11T23:48:47.862Z,2.50
2023-03-11T23:51:17.071Z,2.00
2023-03-11T23:53:44.874Z,2.07
2023-03-11T23:56:15.110Z,2.10
2023-03-11T23:58:42.912Z,2.17
